Time;durP1;ratioP1;P1;durP2;ratioP2;P2;SDS_P1;SDS_P2;PMS_P1;PMS_P2;Temp;Humidity;BMP_temperature;BMP_pressure;BME280_temperature;BME280_humidity;BME280_pressure;Samples;Min_cycle;Max_cycle;Signal;HPM_P1;HPM_P2
2023/01/15 00:01:37;;;;;;;49.77;44.53;;;;;;;3.60;88.78;99727.94;1801671;79;25538;-41
2023/01/15 00:04:04;;;;;;;90.87;83.65;;;;;;;3.60;88.60;99722.05;1799559;79;25569;-40
2023/01/15 00:06:38;;;;;;;93.72;86.10;;;;;;;3.60;88.27;99730.61;1801666;79;25637;-39
2023/01/15 00:09:08;;;;;;;85.47;78.28;;;;;;;3.60;88.22;99724.72;1801215;79;27568;-40
2023/01/15 00:11:34;;;;;;;37.90;34.00;;;;;;;3.61;88.23;99690.23;1801510;79;25596;-41
2023/01/15 00:14:01;;;;;;;27.77;13.68;;;;;;;3.62;88.16;99697.16;1801620;79;25383;-42
2023/01/15 00:16:29;;;;;;;27.27;15.00;;;;;;;3.61;87.98;99688.07;1801460;79;25558;-41
2023/01/15 00:19:00;;;;;;;21.70;12.65;;;;;;;3.62;87.65;99671.75;1770971;79;25568;-42
2023/01/15 00:21:29;;;;;;;30.12;15.10;;;;;;;3.64;87.50;99696.88;1801646;79;27358;-41
2023/01/15 00:29:31;;;;;;;92.62;84.80;;;;;;;3.63;86.49;99665.33;1801564;79;25411;-40
2023/01/15 00:32:06;;;;;;;93.70;85.87;;;;;;;3.63;87.26;99640.47;1801788;79;25552;-39
2023/01/15 00:34:35;;;;;;;91.50;84.25;;;;;;;3.62;86.49;99634.30;1770018;79;26967;-39
2023/01/15 00:37:03;;;;;;;83.58;76.82;;;;;;;3.62;86.97;99634.85;1789919;79;25732;-40
2023/01/15 00:39:29;;;;;;;94.75;87.02;;;;;;;3.60;86.04;99635.67;1786338;80;25636;-41
2023/01/15 00:41:56;;;;;;;91.35;83.78;;;;;;;3.60;86.66;99637.02;1786439;80;25440;-41
2023/01/15 00:44:24;;;;;;;95.60;87.72;;;;;;;3.58;86.34;99627.14;1786475;80;25456;-39
2023/01/15 00:46:51;;;;;;;90.67;83.20;;;;;;;3.57;86.30;99608.94;1759363;80;27343;-41
2023/01/15 00:49:17;;;;;;;95.72;86.97;;;;;;;3.57;86.64;99616.17;1786352;80;25373;-40
2023/01/15 00:51:43;;;;;;;91.75;84.65;;;;;;;3.55;86.39;99610.55;1786486;80;25457;-40
2023/01/15 00:54:10;;;;;;;89.72;82.20;;;;;;;3.54;86.21;99613.50;1786357;80;25376;-39
2023/01/15 00:56:36;;;;;;;91.82;84.65;;;;;;;3.54;86.09;99612.16;1786477;80;25590;-39
2023/01/15 00:59:04;;;;;;;90.80;83.52;;;;;;;3.51;86.28;99606.84;1786401;80;27430;-39
2023/01/15 01:01:32;;;;;;;98.03;89.90;;;;;;;3.51;86.13;99613.53;1786345;80;25444;-39
2023/01/15 01:04:00;;;;;;;90.45;83.20;;;;;;;3.49;85.87;99595.64;1786434;80;25628;-39
2023/01/15 01:06:27;;;;;;;89.47;82.25;;;;;;;3.49;85.81;99605.52;1786555;80;25395;-40
2023/01/15 01:08:55;;;;;;;88.25;81.28;;;;;;;3.48;86.08;99598.03;1786658;80;25608;-41
2023/01/15 01:11:25;;;;;;;19.62;11.33;;;;;;;3.46;85.91;99594.06;1786687;80;29457;-39
2023/01/15 01:13:54;;;;;;;19.23;10.65;;;;;;;3.45;85.66;99586.56;1786482;80;27169;-40
2023/01/15 01:16:36;;;;;;;24.00;11.88;;;;;;;3.43;85.63;99592.73;1786771;79;25548;-39
2023/01/15 01:19:08;;;;;;;28.38;12.73;;;;;;;3.41;86.07;99586.86;1759799;80;25466;-41
2023/01/15 01:21:37;;;;;;;25.82;13.68;;;;;;;3.39;86.00;99586.87;1785723;80;25550;-40
2023/01/15 01:24:07;;;;;;;23.30;12.15;;;;;;;3.36;86.01;99579.67;1786569;80;27393;-40
2023/01/15 01:26:34;;;;;;;23.55;13.55;;;;;;;3.34;85.91;99581.83;1786659;80;25692;-41
2023/01/15 01:29:04;;;;;;;19.40;11.50;;;;;;;3.33;85.85;99588.79;1786557;80;25611;-41
2023/01/15 01:31:31;;;;;;;20.55;12.37;;;;;;;3.32;85.79;99573.81;1786696;80;25378;-39
2023/01/15 01:33:59;;;;;;;18.75;10.38;;;;;;;3.32;86.02;99571.14;1786633;80;25549;-39
2023/01/15 01:36:34;;;;;;;21.17;11.55;;;;;;;3.29;85.58;99571.17;1757220;80;27451;-40
2023/01/15 01:39:04;;;;;;;20.77;11.15;;;;;;;3.28;85.77;99575.45;1773482;80;25563;-41
2023/01/15 01:41:33;;;;;;;19.87;11.65;;;;;;;3.23;85.47;99584.30;1773530;80;25606;-40
2023/01/15 01:44:05;;;;;;;19.30;12.05;;;;;;;3.28;85.82;99580.80;1773467;80;25633;-40
2023/01/15 01:46:35;;;;;;;20.90;14.28;;;;;;;3.27;85.49;99577.86;1773311;80;25542;-40
2023/01/15 01:49:11;;;;;;;18.50;11.35;;;;;;;3.26;85.75;99561.58;1773396;80;27281;-39
2023/01/15 01:51:50;;;;;;;23.90;12.37;;;;;;;3.22;85.78;99560.00;1773317;80;27230;-40
2023/01/15 01:54:20;;;;;;;18.17;11.25;;;;;;;3.22;85.69;99560.52;1770296;81;25448;-40
2023/01/15 01:56:49;;;;;;;24.07;13.65;;;;;;;3.20;85.42;99556.78;1739702;81;25623;-41
2023/01/15 01:59:20;;;;;;;19.82;11.35;;;;;;;3.18;85.57;99548.25;1770488;80;25569;-41
2023/01/15 02:01:49;;;;;;;20.88;10.78;;;;;;;3.15;85.59;99542.94;1770389;81;27385;-40
2023/01/15 02:04:19;;;;;;;18.00;8.73;;;;;;;3.12;85.61;99555.52;1749237;80;25434;-41
2023/01/15 02:06:45;;;;;;;19.65;9.48;;;;;;;3.10;85.60;99514.09;1770392;80;25556;-42
2023/01/15 02:09:11;;;;;;;19.90;9.73;;;;;;;3.07;85.63;99514.13;1770258;80;25463;-40
2023/01/15 02:11:38;;;;;;;18.60;8.50;;;;;;;3.04;85.70;99533.93;1770337;80;25546;-40
2023/01/15 02:14:22;;;;;;;15.63;8.98;;;;;;;3.01;85.81;99487.72;1770283;80;29633;-40
2023/01/15 02:16:53;;;;;;;23.80;10.63;;;;;;;2.98;85.72;99485.09;1770198;81;27219;-41
2023/01/15 02:19:28;;;;;;;17.75;9.38;;;;;;;2.94;85.71;99495.50;1769963;80;25417;-40
2023/01/15 02:22:25;;;;;;;20.08;9.88;;;;;;;2.92;85.94;99511.56;1770329;81;25445;-42
2023/01/15 02:25:12;;;;;;;19.48;9.13;;;;;;;2.89;85.98;99495.53;1769804;80;25586;-42
2023/01/15 02:27:53;;;;;;;18.25;8.70;;;;;;;2.85;85.97;99484.37;1770395;81;27424;-40
2023/01/15 02:30:31;;;;;;;21.82;8.70;;;;;;;2.84;86.03;99501.45;1769164;80;25594;-42
2023/01/15 02:33:14;;;;;;;20.35;9.38;;;;;;;2.82;86.13;99504.40;1770417;81;25367;-40
2023/01/15 02:35:49;;;;;;;18.67;9.05;;;;;;;2.79;86.05;99494.27;1732685;82;25535;-40
2023/01/15 02:38:21;;;;;;;19.00;8.93;;;;;;;2.80;86.18;99495.88;1724443;82;25657;-42
2023/01/15 02:40:53;;;;;;;22.62;9.45;;;;;;;2.77;86.26;99497.20;1739779;82;28186;-41
2023/01/15 02:43:22;;;;;;;21.73;9.58;;;;;;;2.78;86.29;99504.70;1739714;82;25893;-39
2023/01/15 02:45:54;;;;;;;20.80;10.63;;;;;;;2.77;86.27;99502.55;1739856;82;25598;-41
2023/01/15 02:48:25;;;;;;;22.42;11.12;;;;;;;2.79;86.23;99503.61;1739898;82;25693;-42
2023/01/15 02:50:57;;;;;;;22.67;9.33;;;;;;;2.78;86.01;99510.83;1739895;82;25536;-41
2023/01/15 02:53:28;;;;;;;20.90;9.88;;;;;;;2.79;86.15;99496.94;1739848;82;27403;-40
2023/01/15 02:56:00;;;;;;;19.27;9.70;;;;;;;2.80;86.13;99478.51;1739760;82;25765;-40
2023/01/15 02:58:31;;;;;;;24.20;9.68;;;;;;;2.78;85.92;99476.11;1738946;82;25654;-41
2023/01/15 03:01:04;;;;;;;19.67;10.00;;;;;;;2.77;86.02;99471.83;1739748;82;25653;-41
2023/01/15 03:03:50;;;;;;;17.48;8.70;;;;;;;2.77;85.97;99449.68;1739776;82;25598;-40
2023/01/15 03:06:35;;;;;;;26.55;12.35;;;;;;;2.75;85.81;99455.84;1760829;81;28139;-41
2023/01/15 03:09:03;;;;;;;22.85;10.13;;;;;;;2.74;85.90;99429.69;1733636;82;25389;-41
2023/01/15 03:11:36;;;;;;;23.37;9.37;;;;;;;2.71;85.90;99410.75;1761049;81;25399;-42
2023/01/15 03:14:20;;;;;;;23.75;9.85;;;;;;;2.70;85.97;99433.97;1730532;82;25487;-40
2023/01/15 03:17:00;;;;;;;20.95;9.73;;;;;;;2.70;86.02;99413.15;1760875;81;25480;-40
2023/01/15 03:19:32;;;;;;;17.60;9.28;;;;;;;2.69;85.95;99410.20;1730540;82;27382;-42
2023/01/15 03:22:22;;;;;;;14.60;7.83;;;;;;;2.68;85.58;99412.09;1757620;81;25750;-41
2023/01/15 03:25:07;;;;;;;20.77;9.03;;;;;;;2.70;85.98;99405.92;1733983;82;25405;-40
2023/01/15 03:27:33;;;;;;;14.80;8.80;;;;;;;2.71;85.87;99397.40;1760131;81;25573;-40
2023/01/15 03:30:06;;;;;;;19.77;10.35;;;;;;;2.72;85.96;99405.10;1730554;82;25457;-39
2023/01/15 03:32:33;;;;;;;17.82;9.65;;;;;;;2.73;85.45;99408.05;1763140;81;27981;-39
2023/01/15 03:35:02;;;;;;;18.77;8.85;;;;;;;2.74;85.84;99417.66;1733777;82;25564;-39
2023/01/15 03:37:30;;;;;;;11.90;6.62;;;;;;;2.76;85.54;99414.17;1775560;79;25434;-41
2023/01/15 03:39:59;;;;;;;19.57;8.55;;;;;;;2.79;85.62;99422.16;1788961;80;25605;-40
2023/01/15 03:42:36;;;;;;;18.98;10.18;;;;;;;2.83;85.28;99402.36;1789003;80;25600;-39
2023/01/15 03:45:29;;;;;;;13.75;7.67;;;;;;;2.86;85.17;99401.29;1761790;80;27354;-42
2023/01/15 03:48:04;;;;;;;13.78;6.58;;;;;;;2.89;84.99;99374.54;1788616;80;25650;-41
2023/01/15 03:50:51;;;;;;;19.60;9.63;;;;;;;2.91;85.10;99366.52;1752997;81;25488;-42
2023/01/15 03:53:23;;;;;;;17.37;7.97;;;;;;;2.94;84.46;99373.16;1788608;80;25475;-40
2023/01/15 03:56:00;;;;;;;13.83;7.30;;;;;;;2.95;84.25;99368.09;1789047;80;25635;-40
2023/01/15 03:58:41;;;;;;;15.08;9.05;;;;;;;2.96;83.30;99357.12;1742172;80;27182;-41
2023/01/15 04:01:12;;;;;;;13.53;7.22;;;;;;;2.99;84.01;99351.20;1757715;81;27177;-39
2023/01/15 04:03:42;;;;;;;16.27;8.23;;;;;;;3.02;84.11;99360.53;1756199;81;25417;-40
2023/01/15 04:06:10;;;;;;;16.00;6.78;;;;;;;3.02;83.76;99352.52;1755131;80;32704;-40
2023/01/15 04:08:40;;;;;;;16.48;8.95;;;;;;;3.05;83.82;99372.52;1758271;80;25605;-40
2023/01/15 04:11:07;;;;;;;13.43;7.28;;;;;;;3.06;83.09;99348.20;1757823;81;27444;-40
2023/01/15 04:13:35;;;;;;;16.60;9.58;;;;;;;3.08;83.14;99339.91;1757670;81;25573;-40
2023/01/15 04:16:02;;;;;;;12.55;6.90;;;;;;;3.10;83.36;99308.34;1788965;80;25625;-39
2023/01/15 04:18:30;;;;;;;18.95;11.28;;;;;;;3.11;83.12;99338.80;1788931;80;25605;-39
2023/01/15 04:20:57;;;;;;;13.08;7.42;;;;;;;3.14;82.73;99332.10;1757873;81;25453;-41
2023/01/15 04:23:23;;;;;;;12.60;7.45;;;;;;;3.16;82.86;99341.97;1758198;81;29496;-39
2023/01/15 04:25:50;;;;;;;12.47;6.92;;;;;;;3.18;83.05;99326.44;1758150;81;25440;-39
2023/01/15 04:28:16;;;;;;;15.48;8.18;;;;;;;3.19;82.42;99342.74;1789407;80;25439;-40
2023/01/15 04:30:43;;;;;;;15.50;9.13;;;;;;;3.21;82.67;99326.42;1789354;80;25407;-39
2023/01/15 04:33:13;;;;;;;17.40;9.53;;;;;;;3.20;82.86;99322.15;1758327;81;25393;-39
2023/01/15 04:35:39;;;;;;;;;;;;;;;3.20;82.57;99294.88;1760616;81;29540;-41
2023/01/15 04:38:07;;;;;;;11.33;5.97;;;;;;;3.21;81.82;99317.86;1757575;81;25551;-39
2023/01/15 04:46:04;;;;;;;9.75;5.55;;;;;;;3.24;82.02;99269.74;1789017;80;25432;-42
2023/01/15 04:48:30;;;;;;;11.25;6.42;;;;;;;3.25;81.58;99253.94;1789056;80;27296;-41
2023/01/15 04:50:56;;;;;;;11.73;6.10;;;;;;;3.25;81.60;99257.44;1788978;80;25938;-41
2023/01/15 04:53:24;;;;;;;10.65;6.20;;;;;;;3.24;81.51;99270.53;1753268;80;25561;-40
2023/01/15 04:55:52;;;;;;;10.80;6.17;;;;;;;3.25;81.68;99270.80;1788965;80;25634;-40
2023/01/15 04:58:18;;;;;;;11.45;6.45;;;;;;;3.25;81.41;99266.78;1788960;80;25372;-40
2023/01/15 05:00:44;;;;;;;20.35;13.50;;;;;;;3.25;81.05;99259.29;1788947;80;28178;-41
2023/01/15 05:03:10;;;;;;;12.07;6.28;;;;;;;3.25;80.58;99246.74;1788925;80;25431;-40
2023/01/15 05:05:36;;;;;;;14.55;8.60;;;;;;;3.26;81.29;99250.20;1788939;80;25542;-41
2023/01/15 05:08:04;;;;;;;8.65;6.22;;;;;;;3.25;80.97;99245.41;1784025;80;25956;-39
2023/01/15 05:10:30;;;;;;;10.98;5.97;;;;;;;3.25;80.85;99233.38;1757769;81;25659;-40
2023/01/15 05:12:56;;;;;;;11.57;5.28;;;;;;;3.24;80.85;99241.13;1757828;81;26657;-40
2023/01/15 05:15:22;;;;;;;11.10;6.42;;;;;;;3.25;81.24;99233.90;1788804;80;26205;-40
2023/01/15 05:17:50;;;;;;;14.28;10.05;;;;;;;3.23;80.98;99244.88;1788923;80;25490;-40
2023/01/15 05:20:18;;;;;;;10.72;5.60;;;;;;;3.24;80.96;99245.69;1757703;81;25597;-41
2023/01/15 05:22:45;;;;;;;12.53;9.05;;;;;;;3.23;80.78;99240.08;1726592;81;25677;-42
2023/01/15 05:25:11;;;;;;;9.20;5.33;;;;;;;3.25;80.80;99239.24;1789027;80;27327;-40
2023/01/15 05:27:38;;;;;;;10.53;6.78;;;;;;;3.24;80.44;99235.78;1788853;80;25656;-39
2023/01/15 05:30:07;;;;;;;11.73;6.20;;;;;;;3.24;80.84;99255.83;1788978;80;25459;-39
2023/01/15 05:32:33;;;;;;;11.93;6.78;;;;;;;3.24;80.10;99240.34;1789063;80;25479;-39
2023/01/15 05:35:00;;;;;;;9.35;6.40;;;;;;;3.26;80.62;99226.15;1788972;80;25201;-41
2023/01/15 05:37:30;;;;;;;9.98;7.10;;;;;;;3.25;80.39;99219.20;1786498;79;27339;-42
2023/01/15 05:39:56;;;;;;;11.95;9.18;;;;;;;3.27;80.60;99210.34;1779236;80;27286;-42
2023/01/15 05:42:23;;;;;;;13.03;11.73;;;;;;;3.28;79.98;99234.67;1779343;80;28530;-42
2023/01/15 05:44:49;;;;;;;14.93;13.38;;;;;;;3.30;80.37;99227.16;1779218;80;25593;-42
2023/01/15 05:47:15;;;;;;;10.82;6.30;;;;;;;3.31;80.41;99236.22;1779253;80;25468;-43
2023/01/15 05:49:43;;;;;;;9.98;6.55;;;;;;;3.33;80.47;99206.54;1779262;80;27443;-41
2023/01/15 05:52:09;;;;;;;9.30;6.03;;;;;;;3.34;80.84;99219.62;1779195;80;25624;-40
2023/01/15 05:54:37;;;;;;;9.73;6.50;;;;;;;3.36;80.28;99230.03;1779322;80;25426;-42
2023/01/15 05:57:04;;;;;;;8.90;6.08;;;;;;;3.39;79.75;99230.80;1779306;80;25558;-42
2023/01/15 05:59:32;;;;;;;8.63;5.33;;;;;;;3.44;80.36;99232.59;1779385;80;25624;-41
2023/01/15 06:02:00;;;;;;;6.92;5.25;;;;;;;3.45;79.92;99219.48;1778663;80;28204;-40
2023/01/15 06:04:26;;;;;;;6.47;4.60;;;;;;;3.49;79.72;99224.50;1779281;80;25686;-43
2023/01/15 06:06:56;;;;;;;15.55;12.95;;;;;;;3.49;79.81;99221.83;1779347;80;25593;-41
2023/01/15 06:09:26;;;;;;;13.13;7.05;;;;;;;3.50;79.74;99201.49;1752827;80;25584;-39
2023/01/15 06:11:54;;;;;;;20.97;11.18;;;;;;;3.53;79.52;99204.14;1779543;80;25573;-40
2023/01/15 06:14:21;;;;;;;11.45;8.98;;;;;;;3.55;79.66;99192.61;1779353;80;27468;-39
2023/01/15 06:16:49;;;;;;;19.40;17.80;;;;;;;3.58;78.51;99211.31;1778570;80;25405;-42
2023/01/15 06:19:16;;;;;;;22.02;20.40;;;;;;;3.61;79.71;99192.80;1752863;80;25460;-44
2023/01/15 06:21:43;;;;;;;20.92;19.42;;;;;;;3.61;79.15;99192.80;1779356;80;25570;-41
2023/01/15 06:24:11;;;;;;;10.25;8.43;;;;;;;3.64;79.53;99187.41;1779407;80;25472;-41
2023/01/15 06:26:39;;;;;;;6.58;5.72;;;;;;;3.64;78.67;99175.38;1779397;80;27467;-41
2023/01/15 06:29:05;;;;;;;7.75;6.20;;;;;;;3.65;78.79;99197.03;1779262;80;25422;-41
2023/01/15 06:31:31;;;;;;;11.25;10.20;;;;;;;3.66;79.16;99177.20;1779366;80;25641;-41
2023/01/15 06:33:57;;;;;;;14.05;12.68;;;;;;;3.66;78.94;99167.84;1779316;80;25485;-42
2023/01/15 06:36:26;;;;;;;8.68;5.45;;;;;;;3.67;78.77;99172.91;1779446;80;25416;-41
2023/01/15 06:38:53;;;;;;;26.87;24.87;;;;;;;3.68;79.11;99173.17;1779495;80;28113;-42
2023/01/15 06:47:20;;;;;;;11.75;9.10;;;;;;;3.71;78.58;99181.95;1779345;80;25538;-43
2023/01/15 06:49:55;;;;;;;7.75;6.62;;;;;;;3.73;78.19;99170.97;1778660;80;25402;-42
2023/01/15 06:52:25;;;;;;;6.30;5.58;;;;;;;3.74;78.76;99180.56;1779429;80;27366;-43
2023/01/15 06:54:53;;;;;;;14.03;12.90;;;;;;;3.74;78.83;99170.66;1779309;80;25623;-43
2023/01/15 06:57:21;;;;;;;8.15;4.28;;;;;;;3.76;78.96;99188.30;1779335;80;25432;-40
2023/01/15 06:59:50;;;;;;;11.00;6.22;;;;;;;3.74;78.77;99168.53;1779295;80;26009;-42
2023/01/15 07:02:18;;;;;;;9.20;7.85;;;;;;;3.75;78.94;99163.45;1779518;80;25533;-42
2023/01/15 07:04:47;;;;;;;15.35;14.25;;;;;;;3.76;79.31;99163.68;1779341;80;27402;-41
2023/01/15 07:07:19;;;;;;;44.60;41.68;;;;;;;3.76;79.15;99145.51;1779406;80;25477;-41
2023/01/15 07:09:45;;;;;;;10.25;9.25;;;;;;;3.71;79.55;99143.18;1779425;80;25634;-41
2023/01/15 07:12:13;;;;;;;21.55;19.80;;;;;;;3.71;80.16;99145.85;1779331;80;25191;-40
2023/01/15 07:14:39;;;;;;;21.07;19.67;;;;;;;3.67;80.24;99144.05;1779386;80;25670;-40
2023/01/15 07:17:07;;;;;;;51.98;48.68;;;;;;;3.65;80.34;99154.24;1752849;80;27388;-40
2023/01/15 07:19:34;;;;;;;51.50;47.93;;;;;;;3.64;80.79;99143.28;1779285;80;25585;-41
2023/01/15 07:22:01;;;;;;;27.07;25.23;;;;;;;3.64;81.11;99145.95;1779360;80;25567;-41
2023/01/15 07:24:27;;;;;;;11.95;10.68;;;;;;;3.60;81.77;99159.11;1779352;80;25512;-40
2023/01/15 07:26:55;;;;;;;32.95;30.90;;;;;;;3.58;82.14;99144.46;1779397;80;25563;-41
2023/01/15 07:29:22;;;;;;;66.05;61.55;;;;;;;3.50;82.85;99152.03;1779346;80;27810;-41
2023/01/15 07:31:52;;;;;;;30.77;28.50;;;;;;;3.45;83.32;99157.45;1779273;80;25835;-40
2023/01/15 07:34:19;;;;;;;44.65;41.65;;;;;;;3.40;84.18;99150.84;1779600;80;25389;-42
2023/01/15 07:36:47;;;;;;;9.03;7.47;;;;;;;3.33;84.31;99143.73;1752528;80;25573;-40
2023/01/15 07:39:14;;;;;;;21.52;20.02;;;;;;;3.27;85.61;99144.87;1779286;80;25532;-42
2023/01/15 07:50:12;;;;;;;56.33;52.40;;;;;;;3.12;87.37;99135.98;1752408;80;25419;-40
2023/01/15 07:52:38;;;;;;;69.37;64.58;;;;;;;3.10;87.65;99124.80;1778693;80;25557;-41
2023/01/15 07:55:08;;;;;;;73.00;67.97;;;;;;;3.09;88.25;99128.54;1779367;80;27381;-42
2023/01/15 07:57:37;;;;;;;73.70;68.60;;;;;;;3.09;88.48;99120.52;1779386;80;25388;-40
2023/01/15 08:00:10;;;;;;;49.95;46.63;;;;;;;3.06;88.53;99129.11;1752975;80;25580;-40
2023/01/15 08:02:36;;;;;;;52.50;48.78;;;;;;;3.05;88.92;99139.56;1775748;80;25382;-39
2023/01/15 08:05:04;;;;;;;38.70;36.28;;;;;;;3.08;89.07;99123.48;1779392;80;25546;-42
2023/01/15 08:07:39;;;;;;;44.27;41.23;;;;;;;3.09;89.30;99115.73;1779379;80;27447;-40
2023/01/15 08:10:12;;;;;;;47.62;44.65;;;;;;;3.10;89.40;99122.13;1779291;80;25592;-41
2023/01/15 08:15:25;;;;;;;54.08;50.60;;;;;;;3.11;89.93;99120.23;1779355;80;25539;-40
2023/01/15 08:17:53;;;;;;;64.55;59.95;;;;;;;3.15;90.16;99124.73;1779398;80;25632;-41
2023/01/15 08:20:25;;;;;;;70.22;65.22;;;;;;;3.18;89.84;99125.49;1779321;80;27398;-40
2023/01/15 08:22:53;;;;;;;59.77;55.58;;;;;;;3.20;89.92;99121.72;1779307;80;25403;-41
2023/01/15 08:25:23;;;;;;;66.80;62.10;;;;;;;3.24;90.09;99128.09;1779312;80;25648;-40
2023/01/15 08:27:53;;;;;;;78.80;73.37;;;;;;;3.24;90.19;99106.16;1779343;80;25462;-40
2023/01/15 08:30:24;;;;;;;77.45;72.05;;;;;;;3.27;90.15;99127.50;1779377;80;25456;-41
2023/01/15 08:32:51;;;;;;;72.90;67.72;;;;;;;3.28;90.16;99110.39;1779382;80;28380;-41
2023/01/15 08:35:18;;;;;;;77.60;72.17;;;;;;;3.34;90.15;99119.94;1779195;80;27229;-41
2023/01/15 08:37:48;;;;;;;81.15;75.37;;;;;;;3.36;90.06;99115.88;1779336;80;25473;-40
2023/01/15 08:40:17;;;;;;;58.02;53.92;;;;;;;3.38;90.28;99112.91;1788663;80;25368;-40
2023/01/15 08:42:45;;;;;;;79.50;74.03;;;;;;;3.41;89.91;99112.34;1757870;81;25375;-40
2023/01/15 08:45:14;;;;;;;80.32;74.82;;;;;;;3.47;89.87;99112.50;1728226;81;27506;-39
2023/01/15 08:47:42;;;;;;;80.53;74.87;;;;;;;3.49;89.82;99117.03;1788935;80;25629;-42
2023/01/15 08:50:12;;;;;;;;;;;;;;;3.52;89.60;99096.41;1791729;80;25472;-40
2023/01/15 08:52:38;;;;;;;58.40;54.40;;;;;;;3.57;89.63;99094.73;1789177;80;27433;-40
2023/01/15 08:55:08;;;;;;;79.05;73.65;;;;;;;3.61;89.52;99096.53;1788936;80;25288;-40
2023/01/15 08:57:37;;;;;;;79.03;73.67;;;;;;;3.65;89.48;99102.88;1789031;80;27875;-41
2023/01/15 09:00:08;;;;;;;79.72;74.25;;;;;;;3.69;89.54;99093.73;1788915;80;25641;-41
2023/01/15 09:02:35;;;;;;;81.67;76.15;;;;;;;3.72;89.50;99090.47;1757827;81;25556;-41
2023/01/15 09:05:01;;;;;;;80.62;75.20;;;;;;;3.76;89.47;99098.70;1755701;80;25682;-41
2023/01/15 09:07:27;;;;;;;84.83;78.85;;;;;;;3.78;89.47;99096.00;1757748;81;25416;-39
2023/01/15 09:09:53;;;;;;;80.12;74.22;;;;;;;3.81;89.39;99092.72;1789067;80;27402;-41
2023/01/15 09:12:23;;;;;;;86.15;80.15;;;;;;;3.83;89.47;99093.77;1788994;80;25562;-40
2023/01/15 09:14:48;;;;;;;79.65;74.05;;;;;;;3.82;89.40;99092.98;1787828;80;25609;-42
2023/01/15 09:17:16;;;;;;;85.38;79.17;;;;;;;3.87;89.55;99086.20;1788898;80;25459;-41
2023/01/15 09:19:42;;;;;;;80.83;75.28;;;;;;;3.89;89.66;99082.69;1788979;80;32798;-40
2023/01/15 09:22:13;;;;;;;81.78;76.00;;;;;;;3.90;89.84;99097.66;1757862;81;27320;-40
2023/01/15 09:24:40;;;;;;;;;;;;;;;3.92;89.99;99085.33;1791531;80;25582;-39
2023/01/15 09:27:08;;;;;;;79.80;74.10;;;;;;;3.90;89.96;99080.83;1788963;80;25431;-41
2023/01/15 09:29:34;;;;;;;81.63;76.02;;;;;;;3.89;90.08;99088.59;1789059;80;25641;-40
2023/01/15 09:32:01;;;;;;;84.28;78.25;;;;;;;3.90;90.28;99080.83;1789092;80;25432;-40
2023/01/15 09:34:28;;;;;;;84.55;78.70;;;;;;;3.88;90.35;99069.59;1789067;80;27319;-41
2023/01/15 09:36:54;;;;;;;83.27;77.37;;;;;;;3.87;90.87;99078.17;1788990;80;25440;-41
2023/01/15 09:39:21;;;;;;;85.30;79.27;;;;;;;3.85;91.08;99075.56;1788952;80;25419;-39
2023/01/15 09:42:04;;;;;;;82.22;76.35;;;;;;;3.84;91.30;99076.64;1789002;80;25455;-41
2023/01/15 09:44:52;;;;;;;87.57;81.10;;;;;;;3.81;91.83;99070.53;1691725;84;25717;-40
2023/01/15 09:47:35;;;;;;;84.30;78.35;;;;;;;3.79;92.46;99079.40;1691702;84;27417;-40
2023/01/15 09:50:34;;;;;;;80.03;74.35;;;;;;;3.76;92.93;99074.62;1690546;84;25928;-40
2023/01/15 09:53:25;;;;;;;80.85;75.00;;;;;;;3.73;93.00;99072.80;1691606;84;25445;-40
2023/01/15 09:55:55;;;;;;;82.60;76.82;;;;;;;3.70;93.54;99067.24;1691843;84;25968;-40
2023/01/15 09:58:32;;;;;;;84.17;78.17;;;;;;;3.67;93.54;99059.80;1691758;84;25665;-40
2023/01/15 10:01:02;;;;;;;82.17;76.28;;;;;;;3.67;94.50;99065.15;1691631;84;27354;-41
2023/01/15 10:03:43;;;;;;;84.25;78.17;;;;;;;3.64;94.69;99058.49;1691603;84;25448;-39
2023/01/15 10:06:21;;;;;;;83.17;77.17;;;;;;;3.63;95.09;99050.23;1691784;84;25537;-40
2023/01/15 10:08:50;;;;;;;82.33;76.33;;;;;;;3.62;95.06;99050.52;1687292;84;25577;-41
2023/01/15 10:14:38;;;;;;;88.25;81.95;;;;;;;3.62;95.67;99046.52;1691698;84;28158;-39
2023/01/15 10:17:15;;;;;;;82.82;76.67;;;;;;;3.61;96.21;99036.89;1691546;84;25634;-39
2023/01/15 10:19:41;;;;;;;82.25;76.28;;;;;;;3.59;96.74;99045.20;1684222;84;25733;-40
2023/01/15 10:22:25;;;;;;;81.65;75.60;;;;;;;3.60;97.26;99036.11;1761887;80;25753;-40
2023/01/15 10:24:58;;;;;;;82.70;76.87;;;;;;;3.60;97.17;99048.70;1788411;80;25402;-40
2023/01/15 10:27:32;;;;;;;86.97;80.75;;;;;;;3.59;97.42;99039.07;1789167;80;27368;-41
2023/01/15 10:30:16;;;;;;;83.12;76.80;;;;;;;3.58;97.64;99038.29;1725104;81;25484;-40
2023/01/15 10:32:57;;;;;;;82.92;77.03;;;;;;;3.59;97.82;99025.15;1758009;81;25572;-41
2023/01/15 10:36:02;;;;;;;86.17;79.85;;;;;;;3.60;98.27;99020.62;1757825;81;27539;-40
2023/01/15 10:38:46;;;;;;;58.75;54.05;;;;;;;3.61;98.32;99018.98;1756302;81;25402;-40
2023/01/15 10:41:23;;;;;;;11.15;5.72;;;;;;;3.63;98.78;99019.48;1788070;80;27349;-43
2023/01/15 10:44:28;;;;;;;12.10;5.70;;;;;;;3.64;98.84;99028.29;1789178;80;25648;-42
2023/01/15 10:47:00;;;;;;;14.93;6.08;;;;;;;3.63;98.92;99014.14;1758004;81;25597;-42
2023/01/15 10:49:31;;;;;;;12.65;5.78;;;;;;;3.64;98.96;99002.33;1789121;80;25597;-42
2023/01/15 10:52:09;;;;;;;13.03;5.37;;;;;;;3.64;99.11;98994.86;1789170;80;25476;-40
2023/01/15 10:54:41;;;;;;;13.68;5.60;;;;;;;3.65;99.44;98991.11;1784515;80;27393;-42
2023/01/15 10:57:27;;;;;;;12.37;6.10;;;;;;;3.67;99.79;98992.94;1789014;80;25554;-42
2023/01/15 11:00:06;;;;;;;8.70;5.12;;;;;;;3.67;99.86;98993.73;1756994;81;25562;-43
2023/01/15 11:02:48;;;;;;;;;;;;;;;3.67;99.88;98991.05;1760478;81;25486;-41
2023/01/15 11:05:19;;;;;;;11.88;5.75;;;;;;;3.69;100.00;98986.20;1758023;81;25585;-44
2023/01/15 11:07:51;;;;;;;11.85;5.15;;;;;;;3.69;100.00;98986.75;1789156;80;27332;-44
2023/01/15 11:10:23;;;;;;;10.05;5.60;;;;;;;3.68;100.00;98986.52;1788942;80;25459;-43
2023/01/15 11:21:42;;;;;;;13.35;6.58;;;;;;;3.69;100.00;98962.68;1789054;80;27299;-45
2023/01/15 11:24:17;;;;;;;10.68;6.67;;;;;;;3.70;100.00;98969.08;1788960;80;25633;-45
2023/01/15 11:26:54;;;;;;;25.25;23.00;;;;;;;3.70;100.00;98978.44;1757952;81;25638;-44
2023/01/15 11:29:35;;;;;;;72.53;67.35;;;;;;;3.69;100.00;98966.14;1757886;81;25512;-47
2023/01/15 11:32:29;;;;;;;82.80;76.40;;;;;;;3.68;100.00;98963.23;1789087;80;25444;-44
2023/01/15 11:35:17;;;;;;;81.65;75.85;;;;;;;3.68;100.00;98979.28;1788633;80;27338;-49
2023/01/15 11:37:45;;;;;;;84.90;78.50;;;;;;;3.69;100.00;98964.80;1757767;81;25567;-46
2023/01/15 11:40:24;;;;;;;68.52;63.45;;;;;;;3.71;100.00;98952.48;1792030;80;25546;-45
2023/01/15 11:51:43;;;;;;;18.30;7.45;;;;;;;3.70;100.00;98955.70;1794709;80;25624;-46
2023/01/15 11:54:15;;;;;;;12.45;6.47;;;;;;;3.71;100.00;98956.48;1794863;80;25530;-46
2023/01/15 11:56:45;;;;;;;15.53;6.85;;;;;;;3.71;100.00;98960.50;1794791;80;25394;-47
2023/01/15 11:59:17;;;;;;;14.05;7.30;;;;;;;3.73;100.00;98962.36;1794192;80;25984;-45
2023/01/15 12:02:16;;;;;;;14.43;6.55;;;;;;;3.73;100.00;98954.34;1762142;81;27459;-49
2023/01/15 12:04:56;;;;;;;14.25;6.90;;;;;;;3.73;100.00;98939.07;1755076;81;35219;-47
2023/01/15 12:07:26;;;;;;;13.83;6.65;;;;;;;3.74;100.00;98947.33;1758254;81;25437;-48
2023/01/15 12:11:02;;;;;;;13.10;6.50;;;;;;;3.74;100.00;98938.52;1794810;80;27523;-48
2023/01/15 12:13:26;;;;;;;13.93;6.70;;;;;;;3.75;100.00;98937.44;1763093;81;25580;-49
2023/01/15 12:16:43;;;;;;;12.03;7.70;;;;;;;3.77;100.00;98941.16;1763022;81;27279;-50
2023/01/15 12:19:51;;;;;;;16.27;7.78;;;;;;;3.77;100.00;98936.59;1766980;79;25649;-50
2023/01/15 12:22:47;;;;;;;16.40;9.88;;;;;;;3.78;100.00;98928.83;1696643;84;25971;-47
2023/01/15 12:25:40;;;;;;;44.88;41.08;;;;;;;3.78;100.00;98916.80;1697372;84;25601;-47
2023/01/15 12:28:15;;;;;;;37.95;34.60;;;;;;;3.79;100.00;98927.72;1697848;84;25437;-48
2023/01/15 12:31:15;;;;;;;59.42;54.98;;;;;;;3.82;100.00;98934.37;1697849;84;28008;-47
2023/01/15 12:33:57;;;;;;;85.57;79.03;;;;;;;3.80;100.00;98923.16;1697340;84;27156;-47
2023/01/15 12:36:35;;;;;;;86.37;80.10;;;;;;;3.82;100.00;98942.40;1697748;84;25879;-49
2023/01/15 12:39:15;;;;;;;83.42;77.15;;;;;;;3.82;100.00;98934.37;1696715;84;25708;-51
2023/01/15 12:45:00;;;;;;;85.70;79.17;;;;;;;3.84;100.00;98932.19;1700507;84;29569;-47